Flight Track Log - Related Links

Times and Time Zones

All times are in EDT time to prevent confusion due to time zone crossing. See the SWA60 flight status page for this flight to view local times or setup timezone preferences in your user account.

Time Position Orientation Groundspeed Altitude Reporting Facility
EDT Latitude Longitude Course Direction KTS MPH feet Rate Location/Type
Fri 03:45:58 PM 45.5978 -122.6056 293° West 167 192 700  Level Seattle Center
Fri 03:46:41 PM 45.6122 -122.6553 293° West 190 219 2,200 2,351 Climbing Seattle Center
Fri 03:47:35 PM 45.6403 -122.7303 298° West 247 284 4,500 2,661 Climbing Seattle Center
Fri 03:48:36 PM 45.6131 -122.8000 241° Southwest 249 287 7,300 2,436 Climbing Seattle Center
Fri 03:49:48 PM 45.5628 -122.7328 137° Southeast 266 306 9,900 2,256 Climbing Seattle Center
Fri 03:50:49 PM 45.5131 -122.6089 120° Southeast 296 341 12,300 2,164 Climbing Seattle Center
Fri 03:51:50 PM 45.4658 -122.4900 119° Southeast 336 387 14,300 2,066 Climbing Seattle Center
Fri 03:52:51 PM 45.4150 -122.3656 120° Southeast 358 412 16,500 2,016 Climbing Seattle Center
Fri 03:53:52 PM 45.3614 -122.2350 120° Southeast 376 433 18,400 1,869 Climbing Seattle Center
Fri 03:54:53 PM 45.3061 -122.1019 121° Southeast 387 445 20,300 1,770 Climbing Seattle Center
Fri 03:55:54 PM 45.2492 -121.9667 121° Southeast 397 457 22,000 1,672 Climbing Seattle Center
Fri 03:56:55 PM 45.1750 -121.8364 129° Southeast 411 473 23,700 1,475 Climbing Seattle Center
Fri 03:57:56 PM 45.1006 -121.7069 129° Southeast 423 487 25,000 1,230 Climbing Seattle Center
Fri 03:58:57 PM 45.0228 -121.5747 130° Southeast 437 503 26,200 1,082 Climbing Seattle Center
Fri 03:59:58 PM 44.9439 -121.4383 129° Southeast 449 517 27,200 1,180 Climbing Seattle Center
Fri 04:00:59 PM 44.8497 -121.3192 138° Southeast 457 526 28,600 1,180 Climbing Seattle Center
Fri 04:02:00 PM 44.7492 -121.2039 141° Southeast 464 534 29,600 1,230 Climbing Seattle Center
Fri 04:03:01 PM 44.6511 -121.0892 140° Southeast 464 534 31,100 1,475 Climbing Seattle Center
Fri 04:04:02 PM 44.5325 -120.9525 141° Southeast 461 531 32,600 1,180 Climbing Seattle Center
Fri 04:05:03 PM 44.4325 -120.8392 141° Southeast 458 527 33,500 787 Climbing Seattle Center
Fri 04:06:04 PM 44.3353 -120.7283 141° Southeast 461 531 34,200 738 Climbing Seattle Center
Fri 04:07:05 PM 44.2353 -120.6150 141° Southeast 465 535 35,000 393 Climbing Seattle Center
Fri 04:08:06 PM 44.1342 -120.5011 141° Southeast 468 539 35,000  Level Seattle Center
Fri 04:09:07 PM 44.0317 -120.3861 141° Southeast 473 544 35,000  Level Seattle Center
Fri 04:10:08 PM 43.9306 -120.2736 141° Southeast 470 541 35,000  Level Seattle Center
Fri 04:11:09 PM 43.8297 -120.1600 141° Southeast 469 540 35,000  Level Seattle Center
Fri 04:12:10 PM 43.7275 -120.0494 142° Southeast 470 541 35,000  Level Seattle Center
Fri 04:13:11 PM 43.6272 -119.9400 142° Southeast 463 533 35,000  Level Seattle Center
Fri 04:14:12 PM 43.5064 -119.8069 141° Southeast 465 535 35,000  Level Seattle Center
Fri 04:15:13 PM 43.4081 -119.6964 141° Southeast 460 529 35,000  Level Seattle Center
Fri 04:16:15 PM 43.3083 -119.5928 143° Southeast 454 522 35,000  Level Seattle Center
Fri 04:17:16 PM 43.2192 -119.4961 142° Southeast 453 521 35,000  Level Seattle Center
Fri 04:18:17 PM 43.1183 -119.3881 142° Southeast 458 527 35,000  Level Seattle Center
Fri 04:19:18 PM 43.0053 -119.2642 141° Southeast 462 532 35,000  Level Seattle Center
Fri 04:20:19 PM 42.9092 -119.1631 142° Southeast 459 528 35,000  Level Seattle Center
Fri 04:21:20 PM 42.7969 -119.0431 142° Southeast 460 529 35,000  Level Seattle Center
Fri 04:22:21 PM 42.7031 -118.9431 142° Southeast 453 521 35,000  Level Seattle Center
Fri 04:23:22 PM 42.5914 -118.8253 142° Southeast 453 521 35,000  Level Seattle Center
Fri 04:24:23 PM 42.4947 -118.7250 143° Southeast 457 526 35,000  Level Seattle Center
Fri 04:25:24 PM 42.3936 -118.6208 143° Southeast 462 532 35,000  Level Seattle Center
Fri 04:26:39 PM 42.2603 -118.4811 142° Southeast 458 527 35,000  Level Salt Lake Center
Fri 04:27:41 PM 42.1631 -118.3806 143° Southeast 460 529 35,000  Level Salt Lake Center
Fri 04:28:42 PM 42.0658 -118.2789 142° Southeast 461 531 35,000  Level Salt Lake Center
Fri 04:29:44 PM 41.9631 -118.1467 136° Southeast 458 527 35,000  Level Salt Lake Center
Fri 04:30:45 PM 41.8733 -118.0350 137° Southeast 458 527 35,000  Level Salt Lake Center
Fri 04:31:47 PM 41.7697 -117.9033 137° Southeast 460 529 35,000  Level Salt Lake Center
Fri 04:32:48 PM 41.6800 -117.7931 137° Southeast 457 526 35,000  Level Salt Lake Center
Fri 04:33:50 PM 41.5900 -117.6822 137° Southeast 458 527 35,000  Level Salt Lake Center
Fri 04:34:51 PM 41.4853 -117.5550 138° Southeast 457 526 35,000  Level Salt Lake Center
Fri 04:35:53 PM 41.3956 -117.4436 137° Southeast 459 528 35,000  Level Salt Lake Center
Fri 04:36:55 PM 41.2892 -117.3150 138° Southeast 460 529 35,000  Level Salt Lake Center
Fri 04:37:56 PM 41.1994 -117.2053 137° Southeast 459 528 35,000  Level Salt Lake Center
Fri 04:38:58 PM 41.1103 -117.0961 137° Southeast 455 524 35,000  Level Salt Lake Center
Fri 04:39:59 PM 41.0044 -116.9683 138° Southeast 459 528 35,000  Level Salt Lake Center
Fri 04:41:01 PM 40.9136 -116.8586 138° Southeast 459 528 35,000  Level Salt Lake Center
Fri 04:42:04 PM 40.8044 -116.7308 138° Southeast 464 534 35,000  Level Salt Lake Center
Fri 04:43:04 PM 40.7122 -116.6194 138° Southeast 465 535 35,000  Level Salt Lake Center
Fri 04:44:06 PM 40.6189 -116.5094 138° Southeast 467 537 35,000  Level Salt Lake Center
Fri 04:45:07 PM 40.5097 -116.3808 138° Southeast 469 540 35,000  Level Salt Lake Center
Fri 04:46:09 PM 40.4153 -116.2706 138° Southeast 470 541 35,000  Level Salt Lake Center
Fri 04:47:10 PM 40.3222 -116.1606 138° Southeast 468 539 35,000  Level Salt Lake Center
Fri 04:48:12 PM 40.2136 -116.0344 138° Southeast 468 539 35,000  Level Salt Lake Center
Fri 04:49:14 PM 40.1222 -115.9253 138° Southeast 465 535 35,000  Level Salt Lake Center
Fri 04:50:15 PM 40.0139 -115.8017 139° Southeast 462 532 35,000  Level Salt Lake Center
Fri 04:51:17 PM 39.9203 -115.6956 139° Southeast 463 533 35,000  Level Salt Lake Center
Fri 04:52:18 PM 39.8128 -115.5739 139° Southeast 460 529 35,000  Level Salt Lake Center
Fri 04:53:20 PM 39.7211 -115.4689 139° Southeast 458 527 35,000  Level Salt Lake Center
Fri 04:54:22 PM 39.6314 -115.3636 138° Southeast 454 522 35,000  Level Salt Lake Center
Fri 04:55:23 PM 39.5258 -115.2433 139° Southeast 453 521 35,000  Level Salt Lake Center
Fri 04:56:25 PM 39.4342 -115.1386 139° Southeast 456 525 35,000  Level Salt Lake Center
Fri 04:57:27 PM 39.3233 -115.0217 141° Southeast 460 529 35,000  Level Salt Lake Center
Fri 04:58:28 PM 39.2306 -114.9183 139° Southeast 460 529 35,000  Level Salt Lake Center
Fri 04:59:30 PM 39.1436 -114.8175 138° Southeast 453 521 35,000  Level Salt Lake Center
Fri 05:00:31 PM 39.0281 -114.6900 139° Southeast 457 526 35,000  Level Salt Lake Center
Fri 05:01:33 PM 38.9347 -114.5822 138° Southeast 454 522 35,000  Level Salt Lake Center
Fri 05:02:35 PM 38.8403 -114.4778 139° Southeast 450 518 35,000  Level Salt Lake Center
Fri 05:03:36 PM 38.7450 -114.3744 140° Southeast 449 517 35,000  Level Salt Lake Center
Fri 05:04:38 PM 38.6508 -114.2719 140° Southeast 447 514 35,000  Level Salt Lake Center
Fri 05:05:39 PM 38.5578 -114.1700 139° Southeast 442 509 35,000  Level Salt Lake Center
Fri 05:06:41 PM 38.4639 -114.0678 140° Southeast 443 510 35,000  Level Salt Lake Center
Fri 05:07:43 PM 38.3703 -113.9675 140° Southeast 442 509 35,000  Level Salt Lake Center
Fri 05:08:45 PM 38.2558 -113.8478 141° Southeast 443 510 35,000  Level Salt Lake Center
Fri 05:09:46 PM 38.1642 -113.7469 139° Southeast 439 505 35,000  Level Salt Lake Center
Fri 05:10:47 PM 38.0703 -113.6483 140° Southeast 438 504 35,000  Level Salt Lake Center
Fri 05:11:49 PM 37.9767 -113.5483 140° Southeast 442 509 35,000  Level Salt Lake Center
Fri 05:12:51 PM 37.8747 -113.4661 148° Southeast 437 503 35,000  Level Salt Lake Center
Fri 05:13:52 PM 37.7650 -113.3983 154° Southeast 441 507 35,000  Level Salt Lake Center
Fri 05:14:54 PM 37.6344 -113.3194 154° Southeast 437 503 35,000  Level Salt Lake Center
Fri 05:15:56 PM 37.5272 -113.2561 155° Southeast 432 497 35,000  Level Salt Lake Center
Fri 05:16:57 PM 37.4203 -113.1892 154° Southeast 434 499 35,000  Level Salt Lake Center
Fri 05:17:59 PM 37.3139 -113.1247 154° Southeast 431 496 35,000  Level Salt Lake Center
Fri 05:19:01 PM 37.2064 -113.0606 155° Southeast 431 496 35,000 -283 Level Salt Lake Center
Fri 05:19:45 PM 37.1189 -113.0072 154° Southeast 435 501 34,500 -792 Descending Los Angeles Center
Fri 05:20:47 PM 37.0047 -112.9397 155° Southeast 451 519 33,600 -726 Descending Los Angeles Center
Fri 05:21:49 PM 36.8883 -112.8697 154° Southeast 460 529 33,000 -290 Descending Los Angeles Center
Fri 05:22:51 PM 36.7464 -112.7869 155° Southeast 468 539 33,000  Level Los Angeles Center
Fri 05:23:53 PM 36.6306 -112.7181 154° Southeast 464 534 33,000  Level Los Angeles Center
Fri 05:24:56 PM 36.5153 -112.6506 155° Southeast 460 529 33,000  Level Los Angeles Center
Fri 05:25:58 PM 36.3992 -112.5833 155° Southeast 459 528 33,000  Level Los Angeles Center
Fri 05:27:00 PM 36.2828 -112.5142 154° Southeast 463 533 33,000 -435 Level Los Angeles Center
Fri 05:28:02 PM 36.1658 -112.4458 155° Southeast 465 535 32,100 -1,645 Descending Los Angeles Center
Fri 05:29:04 PM 36.0133 -112.4008 167° South 475 547 29,600 -1,500 Descending Los Angeles Center
Fri 05:30:06 PM 35.8847 -112.4100 183° South 461 531 29,000 -290 Descending Los Angeles Center
Fri 05:31:08 PM 35.7578 -112.4161 182° South 459 528 29,000  Level Los Angeles Center
Fri 05:32:10 PM 35.6303 -112.4217 182° South 458 527 29,000  Level Los Angeles Center
Fri 05:33:12 PM 35.5011 -112.4300 183° South 460 529 29,000  Level Los Angeles Center
Fri 05:34:14 PM 35.3739 -112.4322 181° South 452 520 29,000  Level Los Angeles Center
Fri 05:35:24 PM 35.2206 -112.4000 170° South 458 527 29,000  Level Albuquerque Center
Fri 05:36:26 PM 35.0956 -112.3725 170° South 456 525 29,000 -484 Level Albuquerque Center
Fri 05:37:28 PM 34.9681 -112.3461 170° South 460 529 28,000 -1,452 Descending Albuquerque Center
Fri 05:38:30 PM 34.8211 -112.3144 170° South 452 520 26,000 -1,355 Descending Albuquerque Center
Fri 05:39:32 PM 34.7219 -112.2928 170° South 434 499 25,200 -1,742 Descending Albuquerque Center
Fri 05:40:34 PM 34.5839 -112.2608 169° South 423 487 22,400 -2,439 Descending Albuquerque Center
Fri 05:41:35 PM 34.4733 -112.2372 170° South 409 471 20,200 -1,171 Descending Albuquerque Center
Fri 05:42:37 PM 34.3711 -112.2117 168° South 386 444 20,000 -629 Descending Albuquerque Center
Fri 05:43:39 PM 34.2714 -112.1842 167° South 371 427 18,900 -1,403 Descending Albuquerque Center
Fri 05:44:41 PM 34.1717 -112.1581 168° South 370 426 17,100 -1,463 Descending Albuquerque Center
Fri 05:45:42 PM 34.0781 -112.1361 169° South 354 407 15,900 -1,561 Descending Albuquerque Center
Fri 05:46:44 PM 33.9728 -112.1067 167° South 334 384 13,900 -1,742 Descending Albuquerque Center
Fri 05:47:46 PM 33.8878 -112.0861 169° South 321 369 12,300 -1,548 Descending Albuquerque Center
Fri 05:48:48 PM 33.8036 -112.0639 168° South 315 362 10,700 -1,122 Descending Albuquerque Center
Fri 05:49:49 PM 33.7231 -112.0453 169° South 304 350 10,000 -634 Descending Albuquerque Center
Fri 05:50:51 PM 33.6461 -112.0328 172° South 286 329 9,400 -629 Descending Albuquerque Center
Fri 05:51:53 PM 33.5614 -112.0078 166° South 266 306 8,700 -968 Descending Albuquerque Center
Fri 05:52:55 PM 33.5292 -111.9406 120° Southeast 264 304 7,400 -1,171 Descending Albuquerque Center
Fri 05:53:56 PM 33.5283 -111.8586 91° East 252 290 6,300 -1,220 Descending Albuquerque Center
Fri 05:54:58 PM 33.4931 -111.8103 131° Southeast 245 282 4,900 -1,306 Descending Albuquerque Center
Fri 05:56:00 PM 33.4569 -111.8678 233° Southwest 228 262 3,600 -1,113 Descending Albuquerque Center
Fri 05:57:02 PM 33.4417 -111.9167 249° West 186 214 2,600 -976 Descending Albuquerque Center
Fri 05:58:03 PM 33.4425 -111.9669 271° West 162 186 1,600 -488 Descending Albuquerque Center
Fri 05:59:05 PM 33.3433 -112.1319 234° Southwest 245 282 1,600  Level Albuquerque Center

Login

Don't have an account? Register now (free) for customized features, flight alerts, and more!